Time;durP1;ratioP1;P1;durP2;ratioP2;P2;SDS_P1;SDS_P2;PMS_P1;PMS_P2;Temp;Humidity;BMP_temperature;BMP_pressure;BME280_temperature;BME280_humidity;BME280_pressure;Samples;Min_cycle;Max_cycle;Signal;HPM_P1;HPM_P2
2022/11/11 00:00:15;;;;;;;12.60;6.87;;;11.30;99.90;;;;;;5040479;28;20056;-73
2022/11/11 00:02:41;;;;;;;13.23;7.00;;;11.30;99.90;;;;;;5040383;28;20511;-73
2022/11/11 00:05:07;;;;;;;16.50;7.00;;;11.30;99.90;;;;;;5056267;28;20040;-73
2022/11/11 00:07:32;;;;;;;15.63;7.07;;;11.30;99.90;;;;;;5036056;28;20555;-73
2022/11/11 00:09:58;;;;;;;17.57;8.00;;;11.30;99.90;;;;;;5047472;28;20135;-73
2022/11/11 00:12:24;;;;;;;18.77;7.57;;;11.30;99.90;;;;;;5030872;28;20044;-73
2022/11/11 00:14:49;;;;;;;18.90;7.43;;;11.20;99.90;;;;;;5036556;28;20119;-73
2022/11/11 00:25:27;;;;;;;17.00;7.67;;;11.20;99.90;;;;;;5063453;28;21099;-73
2022/11/11 00:27:53;;;;;;;14.33;7.50;;;11.20;99.90;;;;;;5047277;28;20309;-73
2022/11/11 00:30:19;;;;;;;16.50;7.30;;;11.20;99.90;;;;;;5045479;28;20047;-73
2022/11/11 00:32:45;;;;;;;15.40;7.37;;;11.10;99.90;;;;;;5039667;28;20048;-73
2022/11/11 00:38:09;;;;;;;18.98;8.38;;;11.10;99.90;;;;;;5040132;28;20220;-73
2022/11/11 00:40:35;;;;;;;14.10;8.13;;;11.10;99.90;;;;;;5046904;28;20690;-73
2022/11/11 00:43:01;;;;;;;19.77;8.63;;;11.10;99.90;;;;;;5025104;28;20283;-73
2022/11/11 00:45:27;;;;;;;15.77;9.03;;;11.10;99.90;;;;;;5054846;28;20291;-73
2022/11/11 00:53:24;;;;;;;17.57;8.07;;;11.00;99.90;;;;;;5049328;28;20290;-73
2022/11/11 00:55:49;;;;;;;19.47;7.90;;;11.00;99.90;;;;;;5063148;28;20646;-73
2022/11/11 00:58:18;;;;;;;19.70;8.13;;;11.00;99.90;;;;;;5016218;28;20283;-73
2022/11/11 01:00:44;;;;;;;19.70;9.13;;;11.00;99.90;;;;;;5060563;28;20496;-73
2022/11/11 01:03:10;;;;;;;20.10;8.43;;;11.00;99.90;;;;;;5039842;28;20282;-73
2022/11/11 01:05:38;;;;;;;16.17;8.53;;;11.00;99.90;;;;;;5043634;28;20287;-73
2022/11/11 01:08:05;;;;;;;18.80;9.13;;;11.10;99.90;;;;;;5061396;28;20094;-73
2022/11/11 01:10:37;;;;;;;17.60;8.23;;;11.10;99.90;;;;;;5046833;28;20365;-73
2022/11/11 01:13:11;;;;;;;18.30;8.50;;;11.10;99.90;;;;;;5034090;28;20287;-73
2022/11/11 01:15:38;;;;;;;18.23;8.80;;;11.10;99.90;;;;;;5044645;28;20283;-73
2022/11/11 01:18:04;;;;;;;15.70;8.53;;;11.10;99.90;;;;;;5039074;28;20041;-73
2022/11/11 01:20:30;;;;;;;19.27;9.00;;;11.20;99.90;;;;;;5063369;28;20283;-74
2022/11/11 01:22:56;;;;;;;17.43;8.50;;;11.20;99.90;;;;;;5063825;28;20215;-74
2022/11/11 01:25:21;;;;;;;19.63;9.70;;;11.20;99.90;;;;;;5021582;28;20110;-74
2022/11/11 01:27:47;;;;;;;15.70;8.60;;;11.20;99.90;;;;;;5039532;28;20041;-73
2022/11/11 01:30:13;;;;;;;18.73;8.30;;;11.20;99.90;;;;;;5044408;28;20033;-73
2022/11/11 01:32:39;;;;;;;17.33;8.50;;;11.20;99.90;;;;;;5035184;28;20053;-73
2022/11/11 01:35:06;;;;;;;21.07;9.33;;;11.20;99.90;;;;;;5051411;28;20045;-73
2022/11/11 01:37:35;;;;;;;15.83;9.30;;;11.20;99.90;;;;;;5050907;28;20293;-73
2022/11/11 01:40:01;;;;;;;19.43;9.73;;;11.10;99.90;;;;;;5055424;28;20285;-73
2022/11/11 01:42:27;;;;;;;17.20;9.33;;;11.10;99.90;;;;;;5056249;28;20294;-73
2022/11/11 01:44:53;;;;;;;16.03;9.13;;;11.10;99.90;;;;;;5046131;28;20622;-73
2022/11/11 01:47:19;;;;;;;22.63;9.43;;;11.10;99.90;;;;;;5038183;28;20155;-73
2022/11/11 01:49:53;;;;;;;19.60;10.47;;;11.10;99.90;;;;;;5027086;28;20051;-73
2022/11/11 01:52:27;;;;;;;17.85;9.93;;;11.10;99.90;;;;;;5058299;28;20373;-73
2022/11/11 01:55:01;;;;;;;20.37;9.77;;;11.10;99.90;;;;;;5062781;28;20071;-73
2022/11/11 01:57:31;;;;;;;18.60;10.10;;;11.10;99.90;;;;;;5041448;28;20294;-74
2022/11/11 02:00:02;;;;;;;20.07;11.00;;;11.10;99.90;;;;;;5049288;28;20185;-74
2022/11/11 02:02:32;;;;;;;20.50;10.63;;;11.10;99.90;;;;;;5066204;28;20317;-74
2022/11/11 02:07:47;;;;;;;18.63;11.03;;;11.10;99.90;;;;;;5055772;28;20401;-74
2022/11/11 02:10:13;;;;;;;21.27;12.00;;;11.00;99.90;;;;;;5049505;28;20278;-74
2022/11/11 02:15:23;;;;;;;21.87;12.33;;;11.00;99.90;;;;;;5051536;28;20361;-73
2022/11/11 02:17:49;;;;;;;20.93;12.47;;;11.00;99.90;;;;;;5060972;28;20382;-73
2022/11/11 02:20:20;;;;;;;22.03;11.80;;;11.00;99.90;;;;;;5026519;28;20124;-73
2022/11/11 02:23:18;;;;;;;22.80;12.17;;;11.00;99.90;;;;;;5054217;28;20341;-73
2022/11/11 02:25:48;;;;;;;22.17;12.73;;;11.00;99.90;;;;;;5037907;28;20279;-74
2022/11/11 02:28:15;;;;;;;25.37;14.17;;;10.90;99.90;;;;;;5042972;28;20282;-74
2022/11/11 02:30:41;;;;;;;20.40;13.03;;;10.90;99.90;;;;;;5060926;28;20322;-74
2022/11/11 02:33:06;;;;;;;24.83;13.83;;;10.90;99.90;;;;;;5022634;28;20684;-74
2022/11/11 02:35:35;;;;;;;20.87;13.97;;;10.90;99.90;;;;;;5027800;28;20041;-74
2022/11/11 02:38:12;;;;;;;25.90;14.67;;;10.80;99.90;;;;;;5056712;28;20094;-74
2022/11/11 02:43:25;;;;;;;25.17;15.07;;;10.80;99.90;;;;;;5059345;28;20383;-73
2022/11/11 02:45:51;;;;;;;25.67;14.77;;;10.90;99.90;;;;;;5060401;28;20303;-74
2022/11/11 02:48:16;;;;;;;28.20;14.63;;;10.80;99.90;;;;;;5045690;28;20298;-73
2022/11/11 02:50:42;;;;;;;23.90;15.43;;;10.80;99.90;;;;;;5036547;28;20592;-74
2022/11/11 02:53:08;;;;;;;24.23;14.63;;;10.80;99.90;;;;;;5062968;28;20037;-73
2022/11/11 02:55:34;;;;;;;31.03;15.23;;;10.80;99.90;;;;;;5027470;28;20483;-73
2022/11/11 02:58:00;;;;;;;27.93;14.90;;;10.80;99.90;;;;;;5041245;28;20044;-73
2022/11/11 03:00:26;;;;;;;28.17;16.23;;;10.80;99.90;;;;;;5041017;28;20218;-73
2022/11/11 03:02:52;;;;;;;24.07;15.23;;;10.80;99.90;;;;;;5047338;28;20392;-73
2022/11/11 03:05:17;;;;;;;26.30;15.50;;;10.80;99.90;;;;;;5023966;28;20245;-73
2022/11/11 03:07:43;;;;;;;31.77;17.10;;;10.80;99.90;;;;;;5031222;28;20056;-73
2022/11/11 03:10:09;;;;;;;26.47;16.60;;;10.80;99.90;;;;;;5041032;28;20036;-73
2022/11/11 03:12:35;;;;;;;26.27;16.30;;;10.80;99.90;;;;;;5046533;28;20106;-73
2022/11/11 03:15:01;;;;;;;31.97;17.80;;;10.80;99.90;;;;;;5057216;28;20036;-73
2022/11/11 03:17:38;;;;;;;28.60;17.93;;;10.80;99.90;;;;;;5030217;28;20812;-73
2022/11/11 03:23:21;;;;;;;30.55;17.00;;;10.80;99.90;;;;;;5064955;28;20283;-72
2022/11/11 03:25:48;;;;;;;30.83;16.97;;;10.80;99.90;;;;;;5060447;28;20057;-72
2022/11/11 03:28:18;;;;;;;27.10;17.23;;;10.80;99.90;;;;;;5053698;28;20283;-72
2022/11/11 03:30:46;;;;;;;33.37;19.93;;;10.80;99.90;;;;;;5057277;28;20578;-72
2022/11/11 03:33:13;;;;;;;29.37;18.23;;;10.80;99.90;;;;;;5064842;28;20642;-72
2022/11/11 03:35:39;;;;;;;32.37;19.00;;;10.80;99.90;;;;;;5040905;28;20282;-72
2022/11/11 03:38:17;;;;;;;32.47;19.07;;;10.70;99.90;;;;;;5057562;28;20333;-72
2022/11/11 03:40:44;;;;;;;31.90;18.43;;;10.70;99.90;;;;;;5043195;28;20283;-72
2022/11/11 03:43:11;;;;;;;33.47;19.80;;;10.70;99.90;;;;;;5030901;28;20349;-72
2022/11/11 03:45:37;;;;;;;32.30;20.90;;;10.60;99.90;;;;;;5057885;28;20369;-72
2022/11/11 03:48:04;;;;;;;34.10;20.40;;;10.70;99.90;;;;;;5035599;28;20385;-72
2022/11/11 03:50:30;;;;;;;32.23;20.00;;;10.60;99.90;;;;;;5057507;28;20353;-72
2022/11/11 03:52:56;;;;;;;34.70;20.97;;;10.60;99.90;;;;;;5057553;28;20671;-72
2022/11/11 03:55:22;;;;;;;33.10;21.63;;;10.60;99.90;;;;;;5034856;28;20290;-72
2022/11/11 03:57:47;;;;;;;40.70;21.40;;;10.60;99.90;;;;;;5021883;28;20093;-72
2022/11/11 04:00:16;;;;;;;34.33;22.60;;;10.50;99.90;;;;;;5051873;28;20441;-74
2022/11/11 04:11:00;;;;;;;36.87;22.30;;;10.50;99.90;;;;;;5053354;28;20573;-72
2022/11/11 04:16:11;;;;;;;37.72;23.38;;;10.50;99.90;;;;;;5054628;28;20275;-72
2022/11/11 04:26:57;;;;;;;35.92;22.02;;;10.50;99.90;;;;;;5048259;28;20083;-73
2022/11/11 04:29:29;;;;;;;38.03;22.73;;;10.50;99.90;;;;;;5040559;28;20078;-73
2022/11/11 04:35:00;;;;;;;35.80;22.57;;;10.50;99.90;;;;;;5051249;28;20334;-72
2022/11/11 04:37:29;;;;;;;43.60;22.97;;;10.50;99.90;;;;;;5030384;28;20786;-72
2022/11/11 04:42:38;;;;;;;39.83;23.30;;;10.40;99.90;;;;;;5056481;28;20279;-72
2022/11/11 04:45:27;;;;;;;41.70;24.47;;;10.40;99.90;;;;;;5037101;28;20771;-72
2022/11/11 04:48:00;;;;;;;37.63;22.83;;;10.40;99.90;;;;;;5053678;28;20611;-72
2022/11/11 04:50:38;;;;;;;41.13;24.40;;;10.50;99.90;;;;;;5052922;28;20393;-72
2022/11/11 04:53:07;;;;;;;43.47;23.53;;;10.50;99.90;;;;;;5047034;28;20366;-72
2022/11/11 04:58:20;;;;;;;40.47;24.53;;;10.40;99.90;;;;;;5050461;28;20623;-73
2022/11/11 05:00:45;;;;;;;43.93;24.23;;;10.40;99.90;;;;;;5031287;28;20283;-72
2022/11/11 05:03:16;;;;;;;42.90;24.37;;;10.40;99.90;;;;;;5019244;28;20779;-72
2022/11/11 05:11:16;;;;;;;40.45;21.85;;;10.40;99.90;;;;;;5051239;28;20291;-73
2022/11/11 05:22:07;;;;;;;;;;;10.30;99.90;;;;;;5043899;28;20279;-73
2022/11/11 05:27:19;;;;;;;41.90;22.57;;;10.10;99.90;;;;;;5059032;28;20741;-73
2022/11/11 05:29:45;;;;;;;44.17;23.57;;;10.10;99.90;;;;;;5046876;28;20665;-73
2022/11/11 05:32:16;;;;;;;36.60;22.40;;;10.10;99.90;;;;;;5059259;28;20295;-72
2022/11/11 05:34:42;;;;;;;40.43;22.67;;;10.00;99.90;;;;;;5066635;28;20096;-72
2022/11/11 05:37:07;;;;;;;40.00;23.10;;;10.00;99.90;;;;;;5041300;28;20839;-73
2022/11/11 05:39:33;;;;;;;44.10;24.47;;;10.00;99.90;;;;;;5058340;28;20043;-73
2022/11/11 05:41:59;;;;;;;42.07;24.20;;;10.00;99.90;;;;;;5050023;28;20048;-73
2022/11/11 05:44:24;;;;;;;39.40;23.03;;;9.90;99.90;;;;;;5060983;28;20124;-73
2022/11/11 05:46:50;;;;;;;48.80;25.13;;;10.00;99.90;;;;;;5038331;28;20103;-72
2022/11/11 05:49:16;;;;;;;48.30;24.57;;;10.00;99.90;;;;;;5040680;28;20396;-72
2022/11/11 05:51:45;;;;;;;46.17;24.67;;;10.10;99.90;;;;;;5041083;28;20064;-72
2022/11/11 05:54:13;;;;;;;45.63;23.90;;;10.10;99.90;;;;;;5039218;28;20488;-72
2022/11/11 05:56:39;;;;;;;41.23;22.70;;;10.10;99.90;;;;;;5052907;28;20326;-72
2022/11/11 05:59:06;;;;;;;43.43;23.33;;;10.10;99.90;;;;;;5061280;28;20305;-73
2022/11/11 06:01:32;;;;;;;39.63;23.33;;;10.10;99.90;;;;;;5056276;28;20294;-72
2022/11/11 06:03:58;;;;;;;44.07;23.70;;;10.20;99.90;;;;;;5065340;28;20301;-72
2022/11/11 06:06:24;;;;;;;38.93;22.23;;;10.20;99.90;;;;;;5042052;28;20310;-72
2022/11/11 06:08:50;;;;;;;41.57;22.23;;;10.30;99.90;;;;;;5048047;28;20522;-72
2022/11/11 06:11:16;;;;;;;39.70;22.03;;;10.30;99.90;;;;;;5062737;28;20519;-73
2022/11/11 06:13:42;;;;;;;39.63;22.50;;;10.40;99.90;;;;;;5066391;28;20435;-73
2022/11/11 06:16:08;;;;;;;42.23;22.90;;;10.40;99.90;;;;;;5082488;28;20369;-72
2022/11/11 06:18:33;;;;;;;39.43;22.30;;;10.40;99.90;;;;;;5033188;28;20033;-72
2022/11/11 06:20:59;;;;;;;41.70;22.50;;;10.50;99.90;;;;;;5038767;28;20488;-72
2022/11/11 06:23:27;;;;;;;42.07;23.17;;;10.50;99.90;;;;;;5063244;28;20052;-73
2022/11/11 06:26:12;;;;;;;39.27;23.03;;;10.50;99.90;;;;;;5025361;28;20379;-72
2022/11/11 06:28:43;;;;;;;38.45;21.92;;;10.50;99.90;;;;;;5039759;28;20357;-73
2022/11/11 06:31:11;;;;;;;43.30;23.23;;;10.50;99.90;;;;;;5051540;28;20048;-72
2022/11/11 06:33:38;;;;;;;38.63;21.67;;;10.50;99.90;;;;;;5048774;28;20317;-73
2022/11/11 06:36:05;;;;;;;40.03;23.73;;;10.50;99.90;;;;;;5026488;28;20319;-73
2022/11/11 06:38:31;;;;;;;36.90;22.97;;;10.60;99.90;;;;;;5042990;28;20274;-72
2022/11/11 06:40:57;;;;;;;37.37;22.27;;;10.50;99.90;;;;;;5032256;28;20283;-73
2022/11/11 06:43:23;;;;;;;46.10;23.33;;;10.50;99.90;;;;;;5062851;28;20297;-73
2022/11/11 06:45:51;;;;;;;39.23;24.60;;;10.50;99.90;;;;;;5039877;28;20040;-73
2022/11/11 06:48:17;;;;;;;40.67;23.17;;;10.50;99.90;;;;;;5037559;28;20294;-73
2022/11/11 06:50:43;;;;;;;38.20;23.37;;;10.50;99.90;;;;;;5042274;28;20326;-73
2022/11/11 06:53:11;;;;;;;42.10;23.37;;;10.50;99.90;;;;;;5063229;28;20307;-73
2022/11/11 06:55:37;;;;;;;38.93;22.13;;;10.50;99.90;;;;;;5047272;28;20075;-73
2022/11/11 06:58:08;;;;;;;43.10;23.77;;;10.50;99.90;;;;;;5045246;28;20279;-73
2022/11/11 07:00:35;;;;;;;42.23;24.50;;;10.50;99.90;;;;;;5036585;28;20617;-73
2022/11/11 07:03:02;;;;;;;41.87;24.43;;;10.50;99.90;;;;;;5054177;28;20282;-73
2022/11/11 07:05:28;;;;;;;34.87;22.60;;;10.50;99.90;;;;;;5047047;28;20652;-73
2022/11/11 07:07:53;;;;;;;40.60;23.13;;;10.50;99.90;;;;;;5046055;28;20744;-73
2022/11/11 07:10:19;;;;;;;40.30;23.37;;;10.50;99.90;;;;;;5030495;28;20044;-73
2022/11/11 07:12:45;;;;;;;40.67;23.63;;;10.50;99.90;;;;;;5028406;28;20037;-73
2022/11/11 07:15:11;;;;;;;41.03;23.90;;;10.50;99.90;;;;;;5043903;28;20287;-73
2022/11/11 07:17:37;;;;;;;41.30;23.40;;;10.50;99.90;;;;;;5043676;28;20102;-73
2022/11/11 07:20:04;;;;;;;39.43;23.60;;;10.50;99.90;;;;;;5024122;28;20290;-73
2022/11/11 07:22:29;;;;;;;39.83;23.53;;;10.50;99.90;;;;;;5040365;28;20086;-73
2022/11/11 07:24:55;;;;;;;37.33;23.17;;;10.50;99.90;;;;;;5028493;28;20841;-73
2022/11/11 07:27:21;;;;;;;39.13;23.83;;;10.50;99.90;;;;;;5052637;28;20508;-73
2022/11/11 07:29:47;;;;;;;39.20;22.87;;;10.50;99.90;;;;;;5040007;28;20044;-73
2022/11/11 07:32:16;;;;;;;37.17;22.33;;;10.50;99.90;;;;;;5057194;28;20060;-73
2022/11/11 07:34:43;;;;;;;41.10;23.40;;;10.50;99.90;;;;;;5044775;28;20283;-73
2022/11/11 07:37:09;;;;;;;37.83;23.53;;;10.60;99.90;;;;;;5059215;28;20319;-73
2022/11/11 07:39:35;;;;;;;44.53;24.17;;;10.60;99.90;;;;;;5063561;28;20298;-73
2022/11/11 07:42:01;;;;;;;38.57;23.30;;;10.60;99.90;;;;;;5061727;28;20686;-72
2022/11/11 07:44:26;;;;;;;37.47;22.87;;;10.60;99.90;;;;;;5058866;28;20497;-73
2022/11/11 07:46:52;;;;;;;39.20;22.37;;;10.60;99.90;;;;;;5020696;28;20041;-73
2022/11/11 07:49:18;;;;;;;44.77;23.57;;;10.60;99.90;;;;;;5029218;28;20498;-73
2022/11/11 07:51:44;;;;;;;40.53;23.50;;;10.60;99.90;;;;;;5057225;28;20032;-73
2022/11/11 07:54:09;;;;;;;38.00;23.00;;;10.60;99.90;;;;;;5047887;28;20033;-73
2022/11/11 07:56:35;;;;;;;39.63;22.73;;;10.60;99.90;;;;;;5042133;28;20033;-73
2022/11/11 07:59:01;;;;;;;45.83;23.23;;;10.60;99.90;;;;;;5051067;28;20095;-73
2022/11/11 08:01:27;;;;;;;36.73;21.97;;;10.60;99.90;;;;;;5063337;28;20051;-73
2022/11/11 08:03:53;;;;;;;40.40;22.70;;;10.60;99.90;;;;;;5032659;28;20044;-73
2022/11/11 08:06:20;;;;;;;40.80;23.70;;;10.60;99.90;;;;;;5048470;28;20060;-73
2022/11/11 08:08:46;;;;;;;40.93;23.17;;;10.60;99.90;;;;;;5044625;28;20040;-73
2022/11/11 08:11:13;;;;;;;40.07;22.33;;;10.60;99.90;;;;;;5043246;28;20563;-73
2022/11/11 08:13:40;;;;;;;39.53;22.93;;;10.60;99.90;;;;;;5045518;28;20647;-73
2022/11/11 08:16:10;;;;;;;36.03;22.53;;;10.60;99.90;;;;;;5026808;28;20687;-73
2022/11/11 08:18:36;;;;;;;39.37;22.17;;;10.60;99.90;;;;;;5055054;28;20380;-73
2022/11/11 08:21:04;;;;;;;37.40;23.00;;;10.60;99.90;;;;;;5043505;28;20307;-73
2022/11/11 08:23:33;;;;;;;39.83;23.03;;;10.60;99.90;;;;;;5045701;28;20701;-73
2022/11/11 08:26:01;;;;;;;40.90;23.17;;;10.60;99.90;;;;;;5024128;28;20339;-73
2022/11/11 08:28:28;;;;;;;39.67;24.10;;;10.60;99.90;;;;;;5047256;28;20830;-73
2022/11/11 08:30:54;;;;;;;37.87;22.43;;;10.60;99.90;;;;;;5037006;28;20352;-73
2022/11/11 08:33:20;;;;;;;38.67;22.73;;;10.60;99.90;;;;;;5022669;28;20767;-73
2022/11/11 08:35:46;;;;;;;36.93;23.37;;;10.60;99.90;;;;;;5040958;28;20068;-74
2022/11/11 08:38:12;;;;;;;38.77;23.67;;;10.60;99.90;;;;;;5024347;28;20313;-74
2022/11/11 08:40:38;;;;;;;40.37;23.50;;;10.60;99.90;;;;;;5058637;28;20048;-74
2022/11/11 08:43:04;;;;;;;36.20;22.63;;;10.60;99.90;;;;;;5041232;28;20291;-74
2022/11/11 08:45:30;;;;;;;39.90;23.13;;;10.60;99.90;;;;;;5056817;28;20636;-75
2022/11/11 08:47:55;;;;;;;41.73;23.33;;;10.60;99.90;;;;;;5034977;28;20138;-74
2022/11/11 08:50:21;;;;;;;38.20;23.40;;;10.70;99.90;;;;;;5034484;28;20037;-74
2022/11/11 08:52:48;;;;;;;37.80;23.27;;;10.70;99.90;;;;;;5060197;28;20177;-74
2022/11/11 08:55:14;;;;;;;39.83;23.33;;;10.70;99.90;;;;;;5057285;28;20043;-74
2022/11/11 08:57:41;;;;;;;38.93;23.37;;;10.70;99.90;;;;;;5046740;28;20291;-74
2022/11/11 09:00:08;;;;;;;40.90;21.60;;;10.70;99.90;;;;;;5024371;28;20356;-75
2022/11/11 09:02:34;;;;;;;41.27;22.10;;;10.70;99.90;;;;;;5055809;28;20279;-74
2022/11/11 09:04:59;;;;;;;40.67;22.87;;;10.70;99.90;;;;;;5057418;28;20276;-74
2022/11/11 09:07:25;;;;;;;34.53;21.33;;;10.70;99.90;;;;;;5025366;28;20675;-75
2022/11/11 09:09:51;;;;;;;35.83;21.70;;;10.70;99.90;;;;;;5050153;28;20036;-75
2022/11/11 09:12:17;;;;;;;35.80;21.87;;;10.80;99.90;;;;;;5051310;28;20836;-74
2022/11/11 09:14:42;;;;;;;38.07;23.27;;;10.80;99.90;;;;;;5062396;28;20037;-75
2022/11/11 09:17:08;;;;;;;36.03;22.07;;;10.80;99.90;;;;;;5050416;28;20469;-74
2022/11/11 09:19:34;;;;;;;37.83;22.87;;;10.80;99.90;;;;;;5038376;28;20083;-74
2022/11/11 09:22:00;;;;;;;32.80;20.97;;;10.80;99.90;;;;;;5058499;28;20633;-74
2022/11/11 09:24:25;;;;;;;35.73;21.67;;;10.80;99.90;;;;;;5062320;28;20603;-74
2022/11/11 09:26:51;;;;;;;37.03;22.77;;;10.80;99.90;;;;;;5032573;28;20044;-74
2022/11/11 09:29:18;;;;;;;37.10;22.77;;;10.80;99.90;;;;;;5042813;28;20033;-75
2022/11/11 09:31:44;;;;;;;37.40;22.23;;;10.80;99.90;;;;;;5052526;28;20358;-75
2022/11/11 09:34:10;;;;;;;36.07;21.50;;;10.80;99.90;;;;;;5061653;28;20298;-74
2022/11/11 09:36:36;;;;;;;36.50;22.17;;;10.90;99.90;;;;;;5067479;28;20783;-75
2022/11/11 09:39:01;;;;;;;35.10;21.93;;;10.90;99.90;;;;;;5046900;28;20048;-74
2022/11/11 09:42:12;;;;;;;36.63;22.03;;;10.80;99.90;;;;;;5043469;28;20055;-74
2022/11/11 09:45:09;;;;;;;37.13;23.20;;;10.80;99.90;;;;;;5042977;28;20071;-75
2022/11/11 09:47:58;;;;;;;36.07;22.13;;;10.80;99.90;;;;;;5076231;28;20303;-74
2022/11/11 09:50:27;;;;;;;38.47;22.17;;;10.80;99.90;;;;;;5060556;28;20329;-75
2022/11/11 09:53:20;;;;;;;36.00;23.03;;;10.90;99.90;;;;;;5058667;28;20341;-75
2022/11/11 09:55:55;;;;;;;35.53;20.70;;;10.90;99.90;;;;;;5063613;28;20270;-74
2022/11/11 09:58:35;;;;;;;33.00;21.38;;;10.80;99.90;;;;;;5065799;28;20362;-74
2022/11/11 10:01:24;;;;;;;36.10;22.90;;;10.90;99.90;;;;;;5042865;28;20440;-74
2022/11/11 10:04:18;;;;;;;37.23;22.13;;;10.90;99.90;;;;;;5041031;28;20690;-74
2022/11/11 10:06:47;;;;;;;38.33;23.23;;;10.90;99.90;;;;;;5066635;28;20303;-73
2022/11/11 10:09:45;;;;;;;32.70;21.30;;;10.90;99.90;;;;;;5066995;28;20302;-74
2022/11/11 10:12:14;;;;;;;34.07;22.20;;;10.90;99.90;;;;;;5066787;28;20333;-74
2022/11/11 10:14:49;;;;;;;34.73;20.83;;;10.90;99.90;;;;;;5043378;28;20293;-74
2022/11/11 10:17:18;;;;;;;38.08;22.30;;;10.90;99.90;;;;;;5059094;28;20425;-75
2022/11/11 10:20:14;;;;;;;33.40;21.37;;;10.90;99.90;;;;;;5052620;28;20045;-74
2022/11/11 10:22:41;;;;;;;34.83;21.63;;;10.90;99.90;;;;;;5054022;28;20358;-74
2022/11/11 10:25:22;;;;;;;37.30;22.57;;;10.90;99.90;;;;;;5063544;28;20040;-74
2022/11/11 10:27:52;;;;;;;33.97;21.97;;;10.90;99.90;;;;;;5059639;28;20299;-75
2022/11/11 10:30:27;;;;;;;34.30;21.70;;;10.90;99.90;;;;;;5049842;28;20377;-74
2022/11/11 10:33:08;;;;;;;34.10;20.40;;;11.00;99.90;;;;;;5052866;28;20284;-75
2022/11/11 10:35:36;;;;;;;32.00;21.07;;;11.00;99.90;;;;;;5039780;28;20084;-74
2022/11/11 10:38:51;;;;;;;35.77;21.10;;;11.00;99.90;;;;;;5044858;28;20290;-74
2022/11/11 10:41:43;;;;;;;32.13;20.60;;;11.00;99.90;;;;;;4992397;28;20281;-74
2022/11/11 10:44:28;;;;;;;33.63;21.20;;;11.10;99.90;;;;;;4987516;28;20289;-74
2022/11/11 10:47:09;;;;;;;32.72;20.98;;;11.10;99.90;;;;;;5033243;28;20306;-73
2022/11/11 10:49:59;;;;;;;31.90;20.80;;;11.10;99.90;;;;;;5063463;28;20052;-73
2022/11/11 10:52:37;;;;;;;29.97;19.73;;;11.10;99.90;;;;;;5042503;28;20285;-74
2022/11/11 10:55:15;;;;;;;32.73;20.23;;;11.10;99.90;;;;;;5057937;28;20272;-74
2022/11/11 10:57:49;;;;;;;33.47;20.53;;;11.10;99.90;;;;;;5047944;28;20283;-74
2022/11/11 11:00:15;;;;;;;33.07;21.10;;;11.10;99.90;;;;;;5059058;28;20665;-74
2022/11/11 11:03:03;;;;;;;33.00;21.50;;;11.10;99.90;;;;;;5043329;28;20775;-74
2022/11/11 11:05:48;;;;;;;30.80;20.73;;;11.10;99.90;;;;;;5038469;28;20652;-75
2022/11/11 11:08:20;;;;;;;31.38;19.70;;;11.20;99.90;;;;;;5042801;28;20782;-75
2022/11/11 11:11:09;;;;;;;37.17;21.13;;;11.20;99.90;;;;;;5049532;28;20072;-74
2022/11/11 11:13:44;;;;;;;33.80;21.00;;;11.10;99.90;;;;;;5062597;28;20271;-75
2022/11/11 11:16:17;;;;;;;33.47;20.50;;;11.20;99.90;;;;;;5044585;28;20274;-74
2022/11/11 11:18:43;;;;;;;31.00;20.47;;;11.10;99.90;;;;;;5057105;28;20049;-74
2022/11/11 11:21:09;;;;;;;34.97;21.07;;;11.10;99.90;;;;;;5043245;28;20298;-74
2022/11/11 11:23:43;;;;;;;34.43;20.57;;;11.10;99.90;;;;;;5030475;28;20694;-74
2022/11/11 11:26:11;;;;;;;31.33;18.40;;;11.10;99.90;;;;;;5035360;28;20049;-74
2022/11/11 11:28:57;;;;;;;31.67;20.00;;;11.10;99.90;;;;;;5064296;28;20295;-74
2022/11/11 11:31:36;;;;;;;35.30;20.60;;;11.10;99.90;;;;;;5060778;28;20286;-74
2022/11/11 11:34:02;;;;;;;32.63;21.20;;;11.10;99.90;;;;;;5057157;28;20701;-75
2022/11/11 11:36:27;;;;;;;32.33;20.17;;;11.10;99.90;;;;;;5064442;28;20298;-74
2022/11/11 11:38:53;;;;;;;34.83;20.20;;;11.10;99.90;;;;;;5043383;28;20475;-74
2022/11/11 11:41:40;;;;;;;30.50;19.23;;;11.10;99.90;;;;;;5040719;28;20056;-74
2022/11/11 11:44:32;;;;;;;27.70;18.37;;;11.10;99.90;;;;;;5042378;28;20631;-74
2022/11/11 11:47:03;;;;;;;31.73;20.90;;;11.10;99.90;;;;;;5069465;28;20303;-74
2022/11/11 11:50:00;;;;;;;31.27;19.43;;;11.10;99.90;;;;;;5040959;28;20782;-74
2022/11/11 11:52:54;;;;;;;32.07;20.90;;;11.10;99.90;;;;;;5042449;28;20771;-75
2022/11/11 11:55:30;;;;;;;32.33;20.17;;;11.10;99.90;;;;;;5058466;28;20286;-74
2022/11/11 11:58:06;;;;;;;35.37;19.67;;;11.00;99.90;;;;;;5039524;28;20537;-75
2022/11/11 12:00:43;;;;;;;31.07;20.03;;;11.00;99.90;;;;;;5044690;28;20381;-74
2022/11/11 12:03:23;;;;;;;34.87;20.93;;;11.00;99.90;;;;;;5036687;28;20492;-75
2022/11/11 12:06:06;;;;;;;32.87;19.87;;;11.10;99.90;;;;;;5064371;28;20386;-74
2022/11/11 12:08:35;;;;;;;33.87;20.80;;;11.10;99.90;;;;;;5042822;28;20391;-74
2022/11/11 12:11:32;;;;;;;32.93;19.73;;;11.10;99.90;;;;;;5053692;28;20307;-74
2022/11/11 12:14:22;;;;;;;30.73;20.17;;;11.10;99.90;;;;;;5031486;28;20275;-74
2022/11/11 12:17:12;;;;;;;34.77;20.83;;;11.20;99.90;;;;;;5061609;28;20278;-74
2022/11/11 12:19:44;;;;;;;33.20;19.87;;;11.20;99.90;;;;;;5059637;28;20753;-74
2022/11/11 12:22:35;;;;;;;31.10;20.00;;;11.20;99.90;;;;;;5052670;28;20275;-74
2022/11/11 12:25:21;;;;;;;32.23;20.87;;;11.20;99.90;;;;;;5056070;28;20267;-75
2022/11/11 12:28:12;;;;;;;31.13;19.87;;;11.20;99.90;;;;;;5042329;28;20322;-75
2022/11/11 12:30:44;;;;;;;32.40;20.03;;;11.20;99.90;;;;;;5059604;28;20290;-74
2022/11/11 12:33:28;;;;;;;33.90;20.87;;;11.20;99.90;;;;;;5042147;28;20337;-74
2022/11/11 12:36:06;;;;;;;30.77;19.50;;;11.20;99.90;;;;;;5053070;28;20291;-75
2022/11/11 12:38:35;;;;;;;32.30;19.70;;;11.20;99.90;;;;;;5064954;28;20672;-74
2022/11/11 12:41:24;;;;;;;33.60;20.10;;;11.20;99.90;;;;;;5058551;28;20271;-75
2022/11/11 12:44:11;;;;;;;32.77;19.03;;;11.20;99.90;;;;;;5051939;28;20673;-74
2022/11/11 12:46:48;;;;;;;32.37;19.47;;;11.20;99.90;;;;;;5063616;28;20634;-73
2022/11/11 12:49:42;;;;;;;29.30;19.23;;;11.20;99.90;;;;;;5055796;28;20301;-74
2022/11/11 12:52:26;;;;;;;30.60;19.57;;;11.20;99.90;;;;;;5042589;28;20279;-75
2022/11/11 12:55:18;;;;;;;31.33;19.67;;;11.20;99.90;;;;;;5045288;28;20282;-74
2022/11/11 12:58:06;;;;;;;29.43;19.83;;;11.20;99.90;;;;;;5046750;28;20376;-74
2022/11/11 13:00:54;;;;;;;30.87;19.27;;;11.20;99.90;;;;;;5038670;28;20774;-74
2022/11/11 13:03:29;;;;;;;31.73;20.00;;;11.20;99.90;;;;;;5047781;28;20369;-75
2022/11/11 13:06:31;;;;;;;31.08;18.77;;;11.20;99.90;;;;;;5036848;28;20765;-75
2022/11/11 13:09:20;;;;;;;28.73;19.97;;;11.20;99.90;;;;;;5047221;28;20043;-75
2022/11/11 13:12:03;;;;;;;33.93;20.07;;;11.20;99.90;;;;;;5038231;28;20337;-75
2022/11/11 13:14:46;;;;;;;30.40;19.93;;;11.20;99.90;;;;;;5038798;28;20325;-74
2022/11/11 13:17:13;;;;;;;31.00;19.43;;;11.20;99.90;;;;;;5059360;28;20365;-75
2022/11/11 13:19:51;;;;;;;33.30;20.30;;;11.20;99.90;;;;;;5042919;28;20743;-75
2022/11/11 13:22:26;;;;;;;30.07;18.33;;;11.10;99.90;;;;;;5058167;28;20835;-75
2022/11/11 13:24:54;;;;;;;28.87;18.63;;;11.20;99.90;;;;;;5063901;28;20293;-75
2022/11/11 13:27:37;;;;;;;26.63;17.50;;;11.20;99.90;;;;;;5038570;28;20330;-75
2022/11/11 13:30:06;;;;;;;26.80;16.77;;;11.10;99.90;;;;;;5064835;28;20806;-74
2022/11/11 13:32:45;;;;;;;25.03;17.27;;;11.10;99.90;;;;;;5048438;28;20709;-75
2022/11/11 13:35:35;;;;;;;23.83;15.73;;;11.10;99.90;;;;;;5056977;28;20334;-75
2022/11/11 13:38:01;;;;;;;27.27;17.20;;;11.00;99.90;;;;;;5056287;28;20314;-75
2022/11/11 13:40:27;;;;;;;26.70;16.40;;;11.00;99.90;;;;;;5075661;28;20642;-74
2022/11/11 13:42:53;;;;;;;24.43;15.53;;;11.00;99.90;;;;;;5048687;28;20285;-75
2022/11/11 13:45:33;;;;;;;26.97;16.97;;;11.00;99.90;;;;;;5058630;28;20551;-74
2022/11/11 13:48:00;;;;;;;24.00;16.97;;;11.00;99.90;;;;;;5040151;28;20048;-74
2022/11/11 13:50:35;;;;;;;26.10;16.30;;;11.00;99.90;;;;;;5041549;28;20291;-74
2022/11/11 13:53:05;;;;;;;26.50;17.35;;;11.00;99.90;;;;;;5050408;28;20618;-74
2022/11/11 13:55:43;;;;;;;29.50;17.53;;;11.00;99.90;;;;;;5065201;28;20036;-74
2022/11/11 13:58:35;;;;;;;28.97;17.00;;;11.00;99.90;;;;;;5064643;28;20287;-75
2022/11/11 14:01:06;;;;;;;26.43;17.43;;;11.00;99.90;;;;;;5061345;28;20326;-74